createdAt,value
2022-08-05T00:01:36.316Z,99548.69
2022-08-05T00:04:17.683Z,99536.59
2022-08-05T00:06:47.056Z,99537.53
2022-08-05T00:09:19.671Z,99538.47
2022-08-05T00:11:49.597Z,99543.63
2022-08-05T00:14:29.018Z,99542.75
2022-08-05T00:16:57.760Z,99545.91
2022-08-05T00:19:33.775Z,99541.81
2022-08-05T00:22:11.235Z,99540.25
2022-08-05T00:24:42.635Z,99535.84
2022-08-05T00:27:14.070Z,99535.06
2022-08-05T00:29:44.969Z,99528.22
2022-08-05T00:32:15.517Z,99537.59
2022-08-05T00:35:04.370Z,99539.25
2022-08-05T00:37:50.824Z,99539.88
2022-08-05T00:40:26.838Z,99535.97
2022-08-05T00:42:57.845Z,99538.25
2022-08-05T00:45:38.986Z,99538.03
2022-08-05T00:48:13.747Z,99525.09
2022-08-05T00:50:45.925Z,99527.56
2022-08-05T00:53:59.858Z,99528.06
2022-08-05T00:56:07.920Z,99521.69
2022-08-05T00:58:36.205Z,99531.59
2022-08-05T01:01:08.647Z,99524.72
2022-08-05T01:03:37.524Z,99534.34
2022-08-05T01:06:05.842Z,99536.59
2022-08-05T01:08:43.446Z,99522.16
2022-08-05T01:11:21.846Z,99527.72
2022-08-05T01:14:08.969Z,99523.50
2022-08-05T01:16:45.360Z,99526.41
2022-08-05T01:19:30.430Z,99518.50
2022-08-05T01:22:41.668Z,99520.59
2022-08-05T01:25:40.220Z,99521.28
2022-08-05T01:28:34.508Z,99515.03
2022-08-05T01:31:08.693Z,99503.16
2022-08-05T01:33:48.952Z,99527.81
2022-08-05T01:36:21.470Z,99516.06
2022-08-05T01:39:00.933Z,99521.91
2022-08-05T01:41:34.032Z,99523.63
2022-08-05T01:44:04.074Z,99523.63
2022-08-05T01:46:43.051Z,99521.13
2022-08-05T01:49:23.341Z,99516.25
2022-08-05T01:51:55.890Z,99520.06
2022-08-05T01:54:27.848Z,99525.16
2022-08-05T01:58:10.810Z,99515.03
2022-08-05T01:59:50.321Z,99516.91
2022-08-05T02:02:26.281Z,99511.22
2022-08-05T02:05:00.917Z,99513.31
2022-08-05T02:07:32.173Z,99507.28
2022-08-05T02:10:02.163Z,99513.31
2022-08-05T02:12:38.374Z,99504.06
2022-08-05T02:15:13.768Z,99505.50
2022-08-05T02:18:28.766Z,99500.56
2022-08-05T02:20:53.648Z,99502.81
2022-08-05T02:23:33.718Z,99496.81
2022-08-05T02:26:05.954Z,99504.84
2022-08-05T02:28:41.863Z,99501.59
2022-08-05T02:31:21.306Z,99506.50
2022-08-05T02:33:57.394Z,99502.06
2022-08-05T02:36:31.192Z,99502.75
2022-08-05T02:39:02.800Z,99507.94
2022-08-05T02:41:42.903Z,99506.66
2022-08-05T02:44:25.352Z,99510.06
2022-08-05T02:47:00.646Z,99503.47
2022-08-05T02:49:36.915Z,99507.34
2022-08-05T02:52:11.531Z,99503.41
2022-08-05T02:54:50.584Z,99504.19
2022-08-05T02:58:10.221Z,99501.44
2022-08-05T03:00:10.390Z,99494.91
2022-08-05T03:02:42.774Z,99503.34
2022-08-05T03:05:12.766Z,99493.44
2022-08-05T03:08:06.974Z,99505.16
2022-08-05T03:10:30.798Z,99500.78
2022-08-05T03:15:28.414Z,99500.78
2022-08-05T03:17:59.467Z,99494.53
2022-08-05T03:20:27.682Z,99500.91
2022-08-05T03:22:57.610Z,99505.00
2022-08-05T03:25:33.975Z,99501.63
2022-08-05T03:28:18.467Z,99502.50
2022-08-05T03:30:48.470Z,99496.69
2022-08-05T03:33:18.005Z,99495.84
2022-08-05T03:35:47.505Z,99494.81
2022-08-05T03:38:15.984Z,99496.47
2022-08-05T03:40:48.659Z,99501.41
2022-08-05T03:44:09.535Z,99497.06
2022-08-05T03:46:08.237Z,99498.91
2022-08-05T03:48:37.823Z,99496.38
2022-08-05T03:52:37.938Z,99499.72
2022-08-05T03:55:52.466Z,99494.63
2022-08-05T03:56:58.889Z,99494.72
2022-08-05T03:59:46.578Z,99502.19
2022-08-05T04:02:39.067Z,99498.72
2022-08-05T04:05:10.315Z,99497.97
2022-08-05T04:07:51.480Z,99501.31
2022-08-05T04:10:30.962Z,99500.47
2022-08-05T04:13:03.497Z,99495.28
2022-08-05T04:15:33.013Z,99503.66
2022-08-05T04:18:06.777Z,99499.47
2022-08-05T04:20:37.405Z,99501.88
2022-08-05T04:23:05.504Z,99497.50
2022-08-05T04:25:56.428Z,99502.44
2022-08-05T04:28:28.550Z,99498.44
2022-08-05T04:31:00.972Z,99495.16
2022-08-05T04:33:54.591Z,99494.38
2022-08-05T04:36:45.558Z,99493.13
2022-08-05T04:39:07.800Z,99485.19
2022-08-05T04:41:36.837Z,99485.50
2022-08-05T04:44:09.006Z,99487.50
2022-08-05T04:46:38.315Z,99484.97
2022-08-05T04:49:12.383Z,99490.59
2022-08-05T04:51:44.639Z,99475.81
2022-08-05T04:54:14.533Z,99478.56
2022-08-05T04:56:42.505Z,99470.03
2022-08-05T04:59:22.093Z,99478.34
2022-08-05T05:02:07.417Z,99473.22
2022-08-05T05:04:47.521Z,99477.44
2022-08-05T05:07:18.303Z,99483.22
2022-08-05T05:09:52.357Z,99475.56
2022-08-05T05:12:22.265Z,99483.34
2022-08-05T05:14:51.371Z,99474.34
2022-08-05T05:17:24.353Z,99475.56
2022-08-05T05:19:56.571Z,99487.44
2022-08-05T05:22:26.958Z,99481.34
2022-08-05T05:24:58.564Z,99485.69
2022-08-05T05:27:44.433Z,99478.19
2022-08-05T05:30:29.852Z,99474.97
2022-08-05T05:33:08.901Z,99471.28
2022-08-05T05:35:45.318Z,99475.34
2022-08-05T05:38:22.152Z,99477.78
2022-08-05T05:40:54.866Z,99474.44
2022-08-05T05:43:56.872Z,99480.13
2022-08-05T05:46:15.844Z,99477.97
2022-08-05T05:48:44.704Z,99482.56
2022-08-05T05:51:20.083Z,99484.44
2022-08-05T05:53:57.806Z,99487.94
2022-08-05T05:56:33.047Z,99487.50
2022-08-05T05:59:05.484Z,99478.66
2022-08-05T06:01:37.463Z,99487.53
2022-08-05T06:04:07.091Z,99476.16
2022-08-05T06:06:35.816Z,99476.81
2022-08-05T06:09:07.658Z,99469.84
2022-08-05T06:11:39.299Z,99469.75
2022-08-05T06:14:07.514Z,99479.84
2022-08-05T06:16:36.798Z,99479.66
2022-08-05T06:19:07.492Z,99471.72
2022-08-05T06:21:38.865Z,99474.78
2022-08-05T06:24:12.871Z,99472.06
2022-08-05T06:26:45.860Z,99479.66
2022-08-05T06:29:45.360Z,99483.97
2022-08-05T06:32:32.415Z,99450.66
2022-08-05T06:35:05.761Z,99479.41
2022-08-05T06:37:52.323Z,99482.44
2022-08-05T06:40:28.025Z,99487.25
2022-08-05T06:43:00.552Z,99494.63
2022-08-05T06:45:44.884Z,99492.84
2022-08-05T06:48:53.378Z,99490.38
2022-08-05T06:51:09.668Z,99495.34
2022-08-05T06:53:39.543Z,99492.34
2022-08-05T06:56:16.302Z,99485.19
2022-08-05T06:58:54.150Z,99485.75
2022-08-05T07:01:22.656Z,99476.16
2022-08-05T07:03:50.806Z,99476.06
2022-08-05T07:06:20.734Z,99481.72
2022-08-05T07:08:52.043Z,99477.28
2022-08-05T07:11:25.418Z,99482.97
2022-08-05T07:14:15.413Z,99480.22
2022-08-05T07:17:59.256Z,99474.88
2022-08-05T07:22:28.832Z,99478.94
2022-08-05T07:25:22.561Z,99478.84
2022-08-05T07:27:58.634Z,99474.34
2022-08-05T07:30:33.349Z,99477.53
2022-08-05T07:33:16.190Z,99475.69
2022-08-05T07:36:02.940Z,99460.97
2022-08-05T07:38:42.648Z,99459.28
2022-08-05T07:42:09.594Z,99464.75
2022-08-05T07:44:14.215Z,99465.34
2022-08-05T07:46:48.536Z,99470.28
2022-08-05T07:49:18.619Z,99465.81
2022-08-05T07:51:52.904Z,99468.09
2022-08-05T07:54:30.704Z,99467.94
2022-08-05T07:57:22.718Z,99462.81
2022-08-05T07:59:52.551Z,99464.66
2022-08-05T08:02:26.819Z,99469.69
2022-08-05T08:04:59.633Z,99454.13
2022-08-05T08:07:28.975Z,99467.19
2022-08-05T08:10:07.989Z,99460.84
2022-08-05T08:12:49.411Z,99462.41
2022-08-05T08:16:33.891Z,99462.34
2022-08-05T08:18:13.855Z,99464.00
2022-08-05T08:21:03.201Z,99465.56
2022-08-05T08:24:01.279Z,99458.66
2022-08-05T08:26:26.926Z,99460.91
2022-08-05T08:29:21.980Z,99461.75
2022-08-05T08:31:49.224Z,99457.31
2022-08-05T08:34:18.711Z,99460.34
2022-08-05T08:37:05.012Z,99458.34
2022-08-05T08:39:37.549Z,99445.25
2022-08-05T08:42:32.298Z,99451.69
2022-08-05T08:45:21.244Z,99450.72
2022-08-05T08:48:12.330Z,99455.44
2022-08-05T08:51:03.665Z,99455.22
2022-08-05T08:53:30.317Z,99448.09
2022-08-05T08:56:04.459Z,99446.28
2022-08-05T08:58:37.097Z,99452.03
2022-08-05T09:01:16.294Z,99449.31
2022-08-05T09:03:54.283Z,99450.31
2022-08-05T09:06:28.079Z,99444.25
2022-08-05T09:08:58.867Z,99444.44
2022-08-05T09:11:50.910Z,99453.94
2022-08-05T09:14:56.488Z,99444.56
2022-08-05T09:17:04.992Z,99432.56
2022-08-05T09:20:01.911Z,99426.44
2022-08-05T09:22:31.759Z,99431.59
2022-08-05T09:25:13.741Z,99426.34
2022-08-05T09:28:03.758Z,99418.44
2022-08-05T09:30:35.088Z,99417.44
2022-08-05T09:33:05.803Z,99415.03
2022-08-05T09:35:35.364Z,99414.81
2022-08-05T09:38:11.948Z,99417.25
2022-08-05T09:40:52.545Z,99414.22
2022-08-05T09:43:40.883Z,99403.34
2022-08-05T09:46:27.607Z,99407.34
2022-08-05T09:49:08.272Z,99419.06
2022-08-05T09:51:48.763Z,99413.03
2022-08-05T09:54:28.900Z,99413.03
2022-08-05T09:57:01.763Z,99410.75
2022-08-05T09:59:35.208Z,99403.66
2022-08-05T10:02:06.305Z,99411.00
2022-08-05T10:04:41.008Z,99403.06
2022-08-05T10:07:20.741Z,99399.59
2022-08-05T10:10:04.300Z,99398.59
2022-08-05T10:12:49.401Z,99390.53
2022-08-05T10:15:21.907Z,99396.56
2022-08-05T10:18:22.454Z,99394.16
2022-08-05T10:20:53.481Z,99396.34
2022-08-05T10:23:55.209Z,99393.53
2022-08-05T10:26:51.686Z,99386.41
2022-08-05T10:29:02.511Z,99392.47
2022-08-05T10:32:54.432Z,99387.47
2022-08-05T10:34:25.904Z,99383.97
2022-08-05T10:36:58.328Z,99388.22
2022-08-05T10:39:59.526Z,99384.50
2022-08-05T10:42:34.375Z,99381.16
2022-08-05T10:45:20.969Z,99379.84
2022-08-05T10:48:29.848Z,99381.19
2022-08-05T10:50:59.047Z,99379.06
2022-08-05T10:53:45.583Z,99372.41
2022-08-05T10:56:25.200Z,99375.91
2022-08-05T11:00:03.710Z,99374.06
2022-08-05T11:02:14.398Z,99356.41
2022-08-05T11:05:00.246Z,99367.50
2022-08-05T11:07:33.175Z,99352.34
2022-08-05T11:10:27.455Z,99370.59
2022-08-05T11:12:58.219Z,99367.78
2022-08-05T11:16:00.874Z,99353.41
2022-08-05T11:18:34.051Z,99365.88
2022-08-05T11:21:11.438Z,99363.47
2022-08-05T11:24:05.286Z,99360.66
2022-08-05T11:26:34.903Z,99355.38
2022-08-05T11:29:13.345Z,99354.97
2022-08-05T11:31:57.639Z,99357.41
2022-08-05T11:34:40.178Z,99359.97
2022-08-05T11:38:30.298Z,99358.47
2022-08-05T11:41:13.944Z,99357.31
2022-08-05T11:44:06.729Z,99351.00
2022-08-05T11:47:10.109Z,99355.50
2022-08-05T11:49:28.758Z,99355.56
2022-08-05T11:51:57.341Z,99358.72
2022-08-05T11:54:33.419Z,99350.59
2022-08-05T11:57:08.819Z,99360.25
2022-08-05T11:59:52.854Z,99362.56
2022-08-05T12:02:30.352Z,99351.56
2022-08-05T12:05:07.438Z,99354.63
2022-08-05T12:08:03.190Z,99343.84
2022-08-05T12:10:43.771Z,99340.16
2022-08-05T12:13:17.125Z,99340.44
2022-08-05T12:15:49.729Z,99338.78
2022-08-05T12:18:32.794Z,99338.78
2022-08-05T12:21:11.263Z,99335.94
2022-08-05T12:23:42.891Z,99334.84
2022-08-05T12:26:11.768Z,99330.69
2022-08-05T12:28:40.179Z,99317.03
2022-08-05T12:31:09.762Z,99333.09
2022-08-05T12:33:39.174Z,99324.72
2022-08-05T12:36:11.639Z,99317.63
2022-08-05T12:38:40.421Z,99321.91
2022-08-05T12:41:12.939Z,99315.13
2022-08-05T12:43:55.472Z,99309.84
2022-08-05T12:46:29.793Z,99310.31
2022-08-05T12:49:12.920Z,99281.69
2022-08-05T12:52:12.081Z,99288.59
2022-08-05T12:54:34.413Z,99293.72
2022-08-05T12:57:03.982Z,99298.44
2022-08-05T13:01:56.804Z,99296.81
2022-08-05T13:02:39.809Z,99299.13
2022-08-05T13:05:12.560Z,99292.69
2022-08-05T13:08:01.281Z,99298.47
2022-08-05T13:10:33.077Z,99293.81
2022-08-05T13:13:02.766Z,99301.38
2022-08-05T13:15:41.225Z,99302.09
2022-08-05T13:18:19.636Z,99302.50
2022-08-05T13:20:50.402Z,99287.47
2022-08-05T13:23:22.658Z,99290.97
2022-08-05T13:25:58.881Z,99272.53
2022-08-05T13:28:27.803Z,99265.16
2022-08-05T13:30:55.707Z,99274.31
2022-08-05T13:34:24.652Z,99274.09
2022-08-05T13:36:14.770Z,99272.59
2022-08-05T13:38:43.307Z,99265.69
2022-08-05T13:41:11.951Z,99257.66
2022-08-05T13:43:44.822Z,99266.28
2022-08-05T13:47:01.652Z,99268.19
2022-08-05T13:49:12.046Z,99261.38
2022-08-05T13:51:46.538Z,99270.47
2022-08-05T13:54:15.979Z,99262.63
2022-08-05T13:56:50.955Z,99260.16
2022-08-05T13:59:24.905Z,99264.56
2022-08-05T14:01:59.267Z,99262.88
2022-08-05T14:04:49.472Z,99249.66
2022-08-05T14:07:55.796Z,99253.78
2022-08-05T14:10:12.079Z,99249.50
2022-08-05T14:12:40.145Z,99251.28
2022-08-05T14:16:06.193Z,99249.59
2022-08-05T14:18:00.704Z,99231.19
2022-08-05T14:20:29.933Z,99234.91
2022-08-05T14:22:59.953Z,99230.78
2022-08-05T14:25:30.251Z,99228.00
2022-08-05T14:27:59.004Z,99227.09
2022-08-05T14:30:27.825Z,99223.41
2022-08-05T14:32:56.754Z,99227.09
2022-08-05T14:35:37.039Z,99233.31
2022-08-05T14:38:07.096Z,99223.28
2022-08-05T14:40:55.185Z,99227.41
2022-08-05T14:43:58.833Z,99227.31
2022-08-05T14:46:18.043Z,99216.59
2022-08-05T14:48:50.005Z,99219.34
2022-08-05T14:51:18.224Z,99213.88
2022-08-05T14:54:26.979Z,99213.03
2022-08-05T14:56:44.371Z,99203.19
2022-08-05T14:59:15.896Z,99193.94
2022-08-05T15:01:48.115Z,99198.31
2022-08-05T15:04:17.650Z,99203.00
2022-08-05T15:06:49.664Z,99194.59
2022-08-05T15:09:51.574Z,99197.06
2022-08-05T15:12:11.402Z,99200.38
2022-08-05T15:14:48.068Z,99189.97
2022-08-05T15:17:46.468Z,99195.34
2022-08-05T15:20:18.814Z,99181.22
2022-08-05T15:22:54.052Z,99185.47
2022-08-05T15:25:51.204Z,99179.16
2022-08-05T15:28:14.650Z,99186.13
2022-08-05T15:30:43.251Z,99182.88
2022-08-05T15:33:11.811Z,99186.16
2022-08-05T15:35:45.187Z,99165.44
2022-08-05T15:38:35.581Z,99180.78
2022-08-05T15:41:21.949Z,99169.97
2022-08-05T15:43:51.663Z,99176.00
2022-08-05T15:46:20.903Z,99178.72
2022-08-05T15:49:00.950Z,99175.41
2022-08-05T15:52:13.176Z,99166.63
2022-08-05T15:54:29.487Z,99171.84
2022-08-05T15:57:07.466Z,99172.69
2022-08-05T15:59:36.454Z,99173.91
2022-08-05T16:02:09.622Z,99180.22
2022-08-05T16:04:43.282Z,99172.13
2022-08-05T16:07:12.025Z,99170.06
2022-08-05T16:09:42.077Z,99174.47
2022-08-05T16:12:13.944Z,99173.63
2022-08-05T16:14:43.490Z,99185.72
2022-08-05T16:17:13.487Z,99184.75
2022-08-05T16:20:04.584Z,99183.19
2022-08-05T16:22:34.450Z,99181.41
2022-08-05T16:25:08.163Z,99181.84
2022-08-05T16:27:46.905Z,99179.00
2022-08-05T16:30:29.050Z,99184.47
2022-08-05T16:32:57.586Z,99182.06
2022-08-05T16:35:28.592Z,99179.56
2022-08-05T16:38:03.685Z,99179.97
2022-08-05T16:40:51.916Z,99168.06
2022-08-05T16:43:31.953Z,99172.44
2022-08-05T16:46:23.846Z,99174.78
2022-08-05T16:48:51.244Z,99176.03
2022-08-05T16:51:19.212Z,99179.31
2022-08-05T16:54:04.928Z,99180.53
2022-08-05T16:56:41.619Z,99183.41
2022-08-05T16:59:11.935Z,99183.72
2022-08-05T17:01:53.206Z,99178.75
2022-08-05T17:04:26.381Z,99179.28
2022-08-05T17:07:00.088Z,99170.66
2022-08-05T17:09:29.512Z,99176.66
2022-08-05T17:11:59.166Z,99175.41
2022-08-05T17:14:36.684Z,99168.22
2022-08-05T17:17:14.523Z,99163.72
2022-08-05T17:19:46.156Z,99172.72
2022-08-05T17:22:24.782Z,99171.00
2022-08-05T17:24:57.003Z,99160.09
2022-08-05T17:27:27.274Z,99171.22
2022-08-05T17:30:11.898Z,99170.22
2022-08-05T17:32:42.180Z,99176.63
2022-08-05T17:35:10.974Z,99172.75
2022-08-05T17:37:45.225Z,99178.00
2022-08-05T17:40:16.147Z,99169.63
2022-08-05T17:42:50.638Z,99172.63
2022-08-05T17:45:22.937Z,99169.03
2022-08-05T17:47:54.982Z,99151.94
2022-08-05T17:50:28.571Z,99175.44
2022-08-05T17:53:00.047Z,99172.31
2022-08-05T17:55:37.218Z,99178.59
2022-08-05T17:58:09.385Z,99179.78
2022-08-05T18:00:44.962Z,99179.06
2022-08-05T18:03:27.984Z,99174.72
2022-08-05T18:06:05.888Z,99180.63
2022-08-05T18:08:44.151Z,99179.84
2022-08-05T18:11:23.208Z,99175.53
2022-08-05T18:13:53.969Z,99178.84
2022-08-05T18:16:23.340Z,99175.13
2022-08-05T18:18:53.169Z,99176.66
2022-08-05T18:21:26.519Z,99184.81
2022-08-05T18:23:57.197Z,99187.09
2022-08-05T18:26:29.361Z,99184.13
2022-08-05T18:29:01.385Z,99177.00
2022-08-05T18:31:32.996Z,99186.88
2022-08-05T18:34:03.893Z,99194.41
2022-08-05T18:36:36.012Z,99199.94
2022-08-05T18:39:06.672Z,99201.06
2022-08-05T18:41:57.705Z,99203.09
2022-08-05T18:44:34.798Z,99204.25
2022-08-05T18:47:07.229Z,99209.75
2022-08-05T18:49:58.227Z,99196.47
2022-08-05T18:52:35.751Z,99202.03
2022-08-05T18:55:10.301Z,99209.97
2022-08-05T18:57:43.484Z,99220.56
2022-08-05T19:01:58.513Z,99223.81
2022-08-05T19:06:11.105Z,99216.72
2022-08-05T19:08:18.796Z,99228.03
2022-08-05T19:10:46.874Z,99230.09
2022-08-05T19:13:15.886Z,99231.94
2022-08-05T19:15:57.129Z,99225.53
2022-08-05T19:18:28.823Z,99232.44
2022-08-05T19:20:59.535Z,99235.47
2022-08-05T19:24:06.653Z,99234.91
2022-08-05T19:26:17.950Z,99240.06
2022-08-05T19:28:46.910Z,99239.81
2022-08-05T19:31:19.505Z,99241.66
2022-08-05T19:33:56.366Z,99235.66
2022-08-05T19:36:27.085Z,99251.97
2022-08-05T19:39:00.950Z,99251.03
2022-08-05T19:41:58.211Z,99251.22
2022-08-05T19:44:18.682Z,99245.31
2022-08-05T19:46:47.415Z,99247.31
2022-08-05T19:49:18.343Z,99240.72
2022-08-05T19:52:08.682Z,99239.22
2022-08-05T19:54:37.042Z,99239.97
2022-08-05T19:57:09.350Z,99240.50
2022-08-05T20:00:00.590Z,99236.00
2022-08-05T20:02:30.250Z,99227.44
2022-08-05T20:05:00.118Z,99228.44
2022-08-05T20:07:48.662Z,99235.72
2022-08-05T20:10:19.391Z,99239.56
2022-08-05T20:12:50.506Z,99243.25
2022-08-05T20:15:23.454Z,99231.00
2022-08-05T20:18:09.592Z,99247.22
2022-08-05T20:20:39.600Z,99249.41
2022-08-05T20:23:08.933Z,99251.25
2022-08-05T20:25:40.629Z,99252.91
2022-08-05T20:28:14.492Z,99256.78
2022-08-05T20:30:43.189Z,99249.22
2022-08-05T20:33:11.451Z,99250.13
2022-08-05T20:35:45.718Z,99247.63
2022-08-05T20:38:26.954Z,99248.97
2022-08-05T20:40:56.488Z,99256.88
2022-08-05T20:43:33.181Z,99250.41
2022-08-05T20:46:18.551Z,99253.97
2022-08-05T20:48:53.259Z,99252.97
2022-08-05T20:51:22.824Z,99241.53
2022-08-05T20:53:56.521Z,99258.28
2022-08-05T20:56:28.745Z,99258.47
2022-08-05T20:58:59.999Z,99257.00
2022-08-05T21:01:39.252Z,99261.41
2022-08-05T21:04:10.526Z,99265.13
2022-08-05T21:06:45.351Z,99273.91
2022-08-05T21:09:15.922Z,99278.91
2022-08-05T21:12:09.615Z,99280.47
2022-08-05T21:14:34.710Z,99282.91
2022-08-05T21:17:05.435Z,99283.38
2022-08-05T21:19:47.527Z,99274.41
2022-08-05T21:22:21.810Z,99276.84
2022-08-05T21:24:54.806Z,99277.75
2022-08-05T21:27:25.498Z,99259.50
2022-08-05T21:29:57.401Z,99276.44
2022-08-05T21:32:27.171Z,99282.34
2022-08-05T21:35:16.767Z,99278.63
2022-08-05T21:37:47.431Z,99272.50
2022-08-05T21:40:23.407Z,99273.34
2022-08-05T21:42:52.903Z,99272.50
2022-08-05T21:45:24.600Z,99276.81
2022-08-05T21:47:56.478Z,99271.00
2022-08-05T21:50:26.022Z,99272.81
2022-08-05T21:52:58.728Z,99274.66
2022-08-05T21:56:01.049Z,99271.16
2022-08-05T21:58:25.030Z,99270.44
2022-08-05T22:01:00.736Z,99272.25
2022-08-05T22:03:48.299Z,99272.53
2022-08-05T22:06:23.101Z,99275.81
2022-08-05T22:09:13.997Z,99266.66
2022-08-05T22:11:46.703Z,99280.41
2022-08-05T22:14:35.502Z,99280.72
2022-08-05T22:17:06.718Z,99279.44
2022-08-05T22:20:02.074Z,99277.56
2022-08-05T22:22:28.137Z,99282.84
2022-08-05T22:25:18.262Z,99283.69
2022-08-05T22:28:09.109Z,99279.47
2022-08-05T22:30:56.169Z,99278.34
2022-08-05T22:33:57.633Z,99260.13
2022-08-05T22:36:15.418Z,99278.28
2022-08-05T22:38:48.489Z,99281.06
2022-08-05T22:41:26.395Z,99275.25
2022-08-05T22:44:08.682Z,99281.81
2022-08-05T22:46:39.620Z,99294.56
2022-08-05T22:49:12.457Z,99279.97
2022-08-05T22:52:05.453Z,99289.44
2022-08-05T22:54:36.591Z,99293.06
2022-08-05T22:57:05.095Z,99285.75
2022-08-05T22:59:48.532Z,99289.53
2022-08-05T23:02:28.789Z,99277.25
2022-08-05T23:04:57.142Z,99290.13
2022-08-05T23:07:25.046Z,99292.22
2022-08-05T23:10:01.731Z,99294.19
2022-08-05T23:12:32.700Z,99288.09
2022-08-05T23:15:03.324Z,99293.19
2022-08-05T23:17:32.856Z,99298.06
2022-08-05T23:20:16.537Z,99294.31
2022-08-05T23:22:47.713Z,99298.19
2022-08-05T23:25:51.688Z,99305.50
2022-08-05T23:28:08.009Z,99287.72
2022-08-05T23:30:40.258Z,99290.63
2022-08-05T23:33:21.851Z,99292.38
2022-08-05T23:35:55.831Z,99286.97
2022-08-05T23:38:25.969Z,99252.91
2022-08-05T23:40:54.852Z,99290.44
2022-08-05T23:43:25.572Z,99290.31
2022-08-05T23:46:20.786Z,99291.81
2022-08-05T23:49:00.699Z,99279.28
2022-08-05T23:51:53.587Z,99284.75
2022-08-05T23:54:25.820Z,99282.94
2022-08-05T23:56:58.271Z,99287.94
